createdAt,value
2024-01-15T00:00:03.414Z,83
2024-01-15T00:20:03.147Z,82
2024-01-15T00:40:02.621Z,82
2024-01-15T01:00:06.805Z,82
2024-01-15T01:20:03.233Z,83
2024-01-15T01:40:02.685Z,83
2024-01-15T02:00:06.025Z,83
2024-01-15T02:20:02.727Z,84
2024-01-15T02:40:02.967Z,84
2024-01-15T03:00:02.366Z,84
2024-01-15T03:20:03.143Z,83
2024-01-15T03:40:02.701Z,82
2024-01-15T04:00:03.145Z,81
2024-01-15T04:20:02.628Z,80
2024-01-15T04:40:02.904Z,80
2024-01-15T05:00:02.396Z,79
2024-01-15T05:20:03.317Z,78
2024-01-15T05:40:02.884Z,77
2024-01-15T06:00:03.829Z,77
2024-01-15T06:20:03.136Z,77
2024-01-15T06:40:04.104Z,78
2024-01-15T07:00:07.408Z,77
2024-01-15T07:20:02.970Z,77
2024-01-15T07:40:02.769Z,78
2024-01-15T08:00:07.910Z,79
2024-01-15T08:20:03.406Z,78
2024-01-15T08:40:02.819Z,78
2024-01-15T09:00:02.203Z,76
2024-01-15T09:20:03.023Z,76
2024-01-15T09:40:02.353Z,75
2024-01-15T10:00:02.990Z,75
2024-01-15T10:20:08.188Z,75
2024-01-15T10:40:04.308Z,74
2024-01-15T11:00:02.659Z,73
2024-01-15T11:20:02.522Z,73
2024-01-15T11:40:03.127Z,72
2024-01-15T12:00:02.606Z,72
2024-01-15T12:20:03.347Z,72
2024-01-15T12:40:02.570Z,75
2024-01-15T13:00:03.166Z,76
2024-01-15T13:20:03.775Z,78
2024-01-15T13:40:02.660Z,77
2024-01-15T14:00:02.984Z,77
2024-01-15T14:20:02.896Z,76
2024-01-15T14:40:02.994Z,76
2024-01-15T15:00:02.644Z,76
2024-01-15T15:20:02.858Z,75
2024-01-15T15:40:02.477Z,74
2024-01-15T16:00:08.766Z,74
2024-01-15T16:24:05.060Z,75
2024-01-15T16:40:02.816Z,75
2024-01-15T17:00:03.334Z,75
2024-01-15T17:20:02.947Z,76
2024-01-15T17:40:05.899Z,76
2024-01-15T18:00:04.848Z,77
2024-01-15T18:20:02.649Z,77
2024-01-15T18:40:02.830Z,75
2024-01-15T19:00:03.737Z,74
2024-01-15T19:20:02.496Z,72
2024-01-15T19:40:03.159Z,71
2024-01-15T20:00:02.476Z,71
2024-01-15T20:20:03.528Z,71
2024-01-15T20:40:02.828Z,71
2024-01-15T21:00:03.098Z,70
2024-01-15T21:20:02.771Z,70
2024-01-15T21:40:03.094Z,70
2024-01-15T22:00:02.363Z,71
2024-01-15T22:20:03.033Z,70
2024-01-15T22:40:02.858Z,70
2024-01-15T23:00:02.741Z,70
2024-01-15T23:20:02.654Z,70
2024-01-15T23:40:02.932Z,70
